sensor_id;sensor_type;location;lat;lon;timestamp;pressure;altitude;pressure_sealevel;temperature;humidity
62600;BME280;48671;48.922;2.346;2024-03-07T00:00:59;102033.50;;;8.98;66.78
62600;BME280;48671;48.922;2.346;2024-03-07T00:03:25;102048.97;;;9.09;66.71
62600;BME280;48671;48.922;2.346;2024-03-07T00:05:50;102054.22;;;9.06;67.30
62600;BME280;48671;48.922;2.346;2024-03-07T00:08:16;102043.81;;;9.06;66.76
62600;BME280;48671;48.922;2.346;2024-03-07T00:10:41;102049.94;;;8.99;66.47
62600;BME280;48671;48.922;2.346;2024-03-07T00:13:09;102056.00;;;8.98;66.73
62600;BME280;48671;48.922;2.346;2024-03-07T00:15:34;102048.34;;;8.85;66.27
62600;BME280;48671;48.922;2.346;2024-03-07T00:17:59;102038.06;;;8.76;67.40
62600;BME280;48671;48.922;2.346;2024-03-07T00:20:25;102034.56;;;8.80;67.48
62600;BME280;48671;48.922;2.346;2024-03-07T00:22:51;102032.00;;;8.77;67.25
62600;BME280;48671;48.922;2.346;2024-03-07T00:25:16;102047.59;;;8.77;66.56
62600;BME280;48671;48.922;2.346;2024-03-07T00:27:44;102030.56;;;8.46;67.30
62600;BME280;48671;48.922;2.346;2024-03-07T00:30:10;102032.34;;;8.39;67.64
62600;BME280;48671;48.922;2.346;2024-03-07T00:32:38;102039.31;;;8.34;67.92
62600;BME280;48671;48.922;2.346;2024-03-07T00:35:08;102042.81;;;8.25;67.84
62600;BME280;48671;48.922;2.346;2024-03-07T00:37:36;102028.22;;;8.15;68.04
62600;BME280;48671;48.922;2.346;2024-03-07T00:40:02;102023.03;;;8.13;68.71
62600;BME280;48671;48.922;2.346;2024-03-07T00:42:28;102040.28;;;8.17;68.39
62600;BME280;48671;48.922;2.346;2024-03-07T00:44:54;102032.50;;;8.19;68.27
62600;BME280;48671;48.922;2.346;2024-03-07T00:47:19;102033.38;;;8.18;68.49
62600;BME280;48671;48.922;2.346;2024-03-07T00:49:45;102035.03;;;8.25;67.87
62600;BME280;48671;48.922;2.346;2024-03-07T00:52:14;102028.97;;;8.26;68.65
62600;BME280;48671;48.922;2.346;2024-03-07T00:54:39;102028.97;;;8.26;68.06
62600;BME280;48671;48.922;2.346;2024-03-07T00:57:05;102019.47;;;8.24;68.09
62600;BME280;48671;48.922;2.346;2024-03-07T00:59:30;102013.47;;;8.18;68.49
62600;BME280;48671;48.922;2.346;2024-03-07T01:01:56;102024.63;;;8.27;68.42
62600;BME280;48671;48.922;2.346;2024-03-07T01:04:21;102012.53;;;8.27;68.62
62600;BME280;48671;48.922;2.346;2024-03-07T01:06:47;102008.22;;;8.26;67.96
62600;BME280;48671;48.922;2.346;2024-03-07T01:09:13;102013.41;;;8.26;68.40
62600;BME280;48671;48.922;2.346;2024-03-07T01:11:43;102010.81;;;8.28;68.39
62600;BME280;48671;48.922;2.346;2024-03-07T01:14:10;102009.06;;;8.30;68.77
62600;BME280;48671;48.922;2.346;2024-03-07T01:16:35;102013.34;;;8.38;68.54
62600;BME280;48671;48.922;2.346;2024-03-07T01:19:01;102024.56;;;8.42;68.47
62600;BME280;48671;48.922;2.346;2024-03-07T01:21:27;102013.31;;;8.37;67.76
62600;BME280;48671;48.922;2.346;2024-03-07T01:23:52;102012.50;;;8.32;68.57
62600;BME280;48671;48.922;2.346;2024-03-07T01:26:17;102010.78;;;8.34;68.45
62600;BME280;48671;48.922;2.346;2024-03-07T01:28:42;102004.69;;;8.36;68.20
62600;BME280;48671;48.922;2.346;2024-03-07T01:31:08;101997.78;;;8.38;68.10
62600;BME280;48671;48.922;2.346;2024-03-07T01:33:35;101999.50;;;8.36;68.41
62600;BME280;48671;48.922;2.346;2024-03-07T01:36:00;101998.66;;;8.39;68.29
62600;BME280;48671;48.922;2.346;2024-03-07T01:38:26;101998.66;;;8.34;67.49
62600;BME280;48671;48.922;2.346;2024-03-07T01:40:51;101983.22;;;8.19;67.28
62600;BME280;48671;48.922;2.346;2024-03-07T01:43:16;101985.81;;;8.22;67.79
62600;BME280;48671;48.922;2.346;2024-03-07T01:45:42;101966.00;;;8.12;68.53
62600;BME280;48671;48.922;2.346;2024-03-07T01:48:09;101982.28;;;8.26;69.05
62600;BME280;48671;48.922;2.346;2024-03-07T01:50:38;101984.00;;;8.27;68.58
62600;BME280;48671;48.922;2.346;2024-03-07T01:53:03;101974.56;;;8.21;67.57
62600;BME280;48671;48.922;2.346;2024-03-07T01:55:29;101964.34;;;8.05;67.71
62600;BME280;48671;48.922;2.346;2024-03-07T01:57:56;101964.44;;;7.92;67.86
62600;BME280;48671;48.922;2.346;2024-03-07T02:00:24;101953.31;;;7.78;68.29
62600;BME280;48671;48.922;2.346;2024-03-07T02:02:49;101960.25;;;7.71;68.45
62600;BME280;48671;48.922;2.346;2024-03-07T02:05:14;101944.78;;;7.64;68.71
62600;BME280;48671;48.922;2.346;2024-03-07T02:07:40;101950.81;;;7.64;68.96
62600;BME280;48671;48.922;2.346;2024-03-07T02:10:06;101937.09;;;7.53;68.92
62600;BME280;48671;48.922;2.346;2024-03-07T02:12:32;101945.75;;;7.52;69.21
62600;BME280;48671;48.922;2.346;2024-03-07T02:14:58;101942.34;;;7.38;69.38
62600;BME280;48671;48.922;2.346;2024-03-07T02:17:26;101927.75;;;7.27;70.12
62600;BME280;48671;48.922;2.346;2024-03-07T02:19:52;101932.91;;;7.27;69.84
62600;BME280;48671;48.922;2.346;2024-03-07T02:22:18;101926.91;;;7.24;70.18
62600;BME280;48671;48.922;2.346;2024-03-07T02:24:44;101929.47;;;7.27;70.99
62600;BME280;48671;48.922;2.346;2024-03-07T02:27:10;101938.88;;;7.43;70.37
62600;BME280;48671;48.922;2.346;2024-03-07T02:29:36;101916.50;;;7.36;71.08
62600;BME280;48671;48.922;2.346;2024-03-07T02:32:01;101931.06;;;7.49;69.66
62600;BME280;48671;48.922;2.346;2024-03-07T02:34:27;101931.91;;;7.48;69.71
62600;BME280;48671;48.922;2.346;2024-03-07T02:36:52;101927.66;;;7.46;70.36
62600;BME280;48671;48.922;2.346;2024-03-07T02:39:17;101927.59;;;7.50;70.31
62600;BME280;48671;48.922;2.346;2024-03-07T02:41:43;101923.28;;;7.51;70.22
62600;BME280;48671;48.922;2.346;2024-03-07T02:44:08;101920.72;;;7.49;69.76
62600;BME280;48671;48.922;2.346;2024-03-07T02:46:34;101908.63;;;7.50;70.37
62600;BME280;48671;48.922;2.346;2024-03-07T02:48:59;101904.34;;;7.46;69.80
62600;BME280;48671;48.922;2.346;2024-03-07T02:51:25;101914.72;;;7.40;69.37
62600;BME280;48671;48.922;2.346;2024-03-07T02:53:50;101906.13;;;7.35;69.50
62600;BME280;48671;48.922;2.346;2024-03-07T02:56:16;101901.03;;;7.24;70.59
62600;BME280;48671;48.922;2.346;2024-03-07T02:58:41;101903.59;;;7.27;70.95
62600;BME280;48671;48.922;2.346;2024-03-07T03:01:07;101893.25;;;7.27;71.15
62600;BME280;48671;48.922;2.346;2024-03-07T03:03:32;101894.91;;;7.37;71.01
62600;BME280;48671;48.922;2.346;2024-03-07T03:06:01;101898.34;;;7.38;70.86
62600;BME280;48671;48.922;2.346;2024-03-07T03:08:26;101895.72;;;7.41;70.83
62600;BME280;48671;48.922;2.346;2024-03-07T03:10:55;101896.59;;;7.38;70.09
62600;BME280;48671;48.922;2.346;2024-03-07T03:13:23;101895.78;;;7.32;70.57
62600;BME280;48671;48.922;2.346;2024-03-07T03:15:48;101904.41;;;7.37;70.91
62600;BME280;48671;48.922;2.346;2024-03-07T03:18:13;101890.63;;;7.28;70.36
62600;BME280;48671;48.922;2.346;2024-03-07T03:20:39;101889.78;;;7.28;70.19
62600;BME280;48671;48.922;2.346;2024-03-07T03:23:05;101882.00;;;7.28;71.50
62600;BME280;48671;48.922;2.346;2024-03-07T03:25:31;101875.09;;;7.33;70.78
62600;BME280;48671;48.922;2.346;2024-03-07T03:28:00;101884.56;;;7.34;69.86
62600;BME280;48671;48.922;2.346;2024-03-07T03:30:26;101881.19;;;7.21;70.51
62600;BME280;48671;48.922;2.346;2024-03-07T03:32:51;101884.66;;;7.16;71.44
62600;BME280;48671;48.922;2.346;2024-03-07T03:35:17;101885.56;;;7.09;70.93
62600;BME280;48671;48.922;2.346;2024-03-07T03:37:43;101879.53;;;7.10;70.79
62600;BME280;48671;48.922;2.346;2024-03-07T03:40:09;101871.78;;;7.05;70.68
62600;BME280;48671;48.922;2.346;2024-03-07T03:42:35;101877.81;;;7.07;71.01
62600;BME280;48671;48.922;2.346;2024-03-07T03:45:01;101876.97;;;7.05;71.32
62600;BME280;48671;48.922;2.346;2024-03-07T03:47:32;101877.81;;;7.06;70.91
62600;BME280;48671;48.922;2.346;2024-03-07T03:49:58;101864.94;;;6.95;70.92
62600;BME280;48671;48.922;2.346;2024-03-07T03:52:24;101857.22;;;6.89;70.43
62600;BME280;48671;48.922;2.346;2024-03-07T03:54:49;101859.00;;;6.80;70.74
62600;BME280;48671;48.922;2.346;2024-03-07T03:57:14;101857.22;;;6.86;71.46
62600;BME280;48671;48.922;2.346;2024-03-07T03:59:43;101864.09;;;6.93;71.55
62600;BME280;48671;48.922;2.346;2024-03-07T04:02:09;101862.41;;;6.90;70.38
62600;BME280;48671;48.922;2.346;2024-03-07T04:04:38;101863.25;;;6.91;70.73
62600;BME280;48671;48.922;2.346;2024-03-07T04:07:04;101865.81;;;6.92;71.26
62600;BME280;48671;48.922;2.346;2024-03-07T04:09:29;101861.53;;;6.85;70.49
62600;BME280;48671;48.922;2.346;2024-03-07T04:11:55;101856.38;;;6.85;71.19
62600;BME280;48671;48.922;2.346;2024-03-07T04:14:24;101860.66;;;6.94;71.86
62600;BME280;48671;48.922;2.346;2024-03-07T04:16:50;101867.47;;;7.07;71.00
62600;BME280;48671;48.922;2.346;2024-03-07T04:19:15;101873.47;;;7.09;70.24
62600;BME280;48671;48.922;2.346;2024-03-07T04:21:40;101875.28;;;7.01;71.12
62600;BME280;48671;48.922;2.346;2024-03-07T04:24:06;101870.09;;;7.01;71.16
62600;BME280;48671;48.922;2.346;2024-03-07T04:26:32;101861.47;;;6.96;69.98
62600;BME280;48671;48.922;2.346;2024-03-07T04:28:57;101869.28;;;6.90;70.41
62600;BME280;48671;48.922;2.346;2024-03-07T04:31:23;101876.19;;;6.86;70.68
62600;BME280;48671;48.922;2.346;2024-03-07T04:33:48;101869.34;;;6.76;70.65
62600;BME280;48671;48.922;2.346;2024-03-07T04:36:14;101865.97;;;6.62;70.56
62600;BME280;48671;48.922;2.346;2024-03-07T04:38:39;101872.00;;;6.61;70.69
62600;BME280;48671;48.922;2.346;2024-03-07T04:41:13;101864.25;;;6.59;71.28
62600;BME280;48671;48.922;2.346;2024-03-07T04:43:40;101863.38;;;6.60;70.82
62600;BME280;48671;48.922;2.346;2024-03-07T04:46:07;101860.78;;;6.60;70.36
62600;BME280;48671;48.922;2.346;2024-03-07T04:48:33;101851.34;;;6.57;71.04
62600;BME280;48671;48.922;2.346;2024-03-07T04:50:58;101856.50;;;6.56;70.41
62600;BME280;48671;48.922;2.346;2024-03-07T04:53:23;101841.00;;;6.50;71.51
62600;BME280;48671;48.922;2.346;2024-03-07T04:55:49;101835.75;;;6.68;77.62
62600;BME280;48671;48.922;2.346;2024-03-07T04:58:15;101846.03;;;6.87;71.74
62600;BME280;48671;48.922;2.346;2024-03-07T05:00:40;101840.88;;;6.80;70.95
62600;BME280;48671;48.922;2.346;2024-03-07T05:03:05;101846.91;;;6.76;70.28
62600;BME280;48671;48.922;2.346;2024-03-07T05:05:31;101848.75;;;6.61;70.46
62600;BME280;48671;48.922;2.346;2024-03-07T05:07:56;101854.78;;;6.53;70.67
62600;BME280;48671;48.922;2.346;2024-03-07T05:10:22;101843.59;;;6.44;70.68
62600;BME280;48671;48.922;2.346;2024-03-07T05:12:47;101859.97;;;6.47;70.24
62600;BME280;48671;48.922;2.346;2024-03-07T05:15:12;101857.38;;;6.49;70.88
62600;BME280;48671;48.922;2.346;2024-03-07T05:17:38;101847.06;;;6.40;70.84
62600;BME280;48671;48.922;2.346;2024-03-07T05:20:05;101840.19;;;6.39;70.98
62600;BME280;48671;48.922;2.346;2024-03-07T05:22:38;101842.78;;;6.36;70.25
62600;BME280;48671;48.922;2.346;2024-03-07T05:25:06;101851.41;;;6.27;70.89
62600;BME280;48671;48.922;2.346;2024-03-07T05:27:32;101848.00;;;6.14;70.65
62600;BME280;48671;48.922;2.346;2024-03-07T05:29:58;101845.41;;;6.17;71.51
62600;BME280;48671;48.922;2.346;2024-03-07T05:32:25;101842.84;;;6.22;70.89
62600;BME280;48671;48.922;2.346;2024-03-07T05:34:51;101840.25;;;6.22;70.93
62600;BME280;48671;48.922;2.346;2024-03-07T05:37:18;101839.38;;;6.17;71.17
62600;BME280;48671;48.922;2.346;2024-03-07T05:39:45;101848.00;;;6.25;71.08
62600;BME280;48671;48.922;2.346;2024-03-07T05:42:10;101840.25;;;6.20;70.78
62600;BME280;48671;48.922;2.346;2024-03-07T05:44:39;101833.34;;;6.21;71.01
62600;BME280;48671;48.922;2.346;2024-03-07T05:47:04;101845.38;;;6.29;70.74
62600;BME280;48671;48.922;2.346;2024-03-07T05:49:30;101847.97;;;6.32;71.92
62600;BME280;48671;48.922;2.346;2024-03-07T05:51:56;101847.09;;;6.38;70.96
62600;BME280;48671;48.922;2.346;2024-03-07T05:54:23;101860.00;;;6.43;70.78
62600;BME280;48671;48.922;2.346;2024-03-07T05:56:48;101840.19;;;6.36;70.39
62600;BME280;48671;48.922;2.346;2024-03-07T05:59:14;101841.91;;;6.41;71.22
62600;BME280;48671;48.922;2.346;2024-03-07T06:01:39;101852.25;;;6.33;70.24
62600;BME280;48671;48.922;2.346;2024-03-07T06:04:06;101853.16;;;6.28;70.20
62600;BME280;48671;48.922;2.346;2024-03-07T06:06:35;101845.41;;;6.25;70.06
62600;BME280;48671;48.922;2.346;2024-03-07T06:09:02;101847.13;;;6.26;71.24
62600;BME280;48671;48.922;2.346;2024-03-07T06:11:35;101817.03;;;6.09;70.09
62600;BME280;48671;48.922;2.346;2024-03-07T06:14:01;101840.19;;;6.31;71.29
62600;BME280;48671;48.922;2.346;2024-03-07T06:16:30;101831.59;;;6.33;71.17
62600;BME280;48671;48.922;2.346;2024-03-07T06:18:58;101829.84;;;6.37;70.32
62600;BME280;48671;48.922;2.346;2024-03-07T06:21:24;101848.78;;;6.45;71.43
62600;BME280;48671;48.922;2.346;2024-03-07T06:23:49;101829.81;;;6.46;70.96
62600;BME280;48671;48.922;2.346;2024-03-07T06:26:20;101832.41;;;6.51;71.23
62600;BME280;48671;48.922;2.346;2024-03-07T06:29:02;101831.56;;;6.44;69.28
62600;BME280;48671;48.922;2.346;2024-03-07T06:31:27;101816.91;;;6.42;70.10
62600;BME280;48671;48.922;2.346;2024-03-07T06:33:52;101834.16;;;6.44;70.17
62600;BME280;48671;48.922;2.346;2024-03-07T06:36:18;101830.72;;;6.39;70.26
62600;BME280;48671;48.922;2.346;2024-03-07T06:38:43;101833.31;;;6.36;70.50
62600;BME280;48671;48.922;2.346;2024-03-07T06:41:08;101826.44;;;6.24;69.88
62600;BME280;48671;48.922;2.346;2024-03-07T06:43:35;101835.06;;;6.28;70.07
62600;BME280;48671;48.922;2.346;2024-03-07T06:46:00;101825.59;;;6.22;70.63
62600;BME280;48671;48.922;2.346;2024-03-07T06:48:26;101817.00;;;6.22;70.78
62600;BME280;48671;48.922;2.346;2024-03-07T06:50:51;101811.81;;;6.23;70.85
62600;BME280;48671;48.922;2.346;2024-03-07T06:53:17;101818.63;;;6.40;71.19
62600;BME280;48671;48.922;2.346;2024-03-07T06:55:43;101811.72;;;6.43;70.57
62600;BME280;48671;48.922;2.346;2024-03-07T06:58:08;101821.19;;;6.52;71.30
62600;BME280;48671;48.922;2.346;2024-03-07T07:00:35;101816.81;;;6.68;70.81
62600;BME280;48671;48.922;2.346;2024-03-07T07:03:01;101817.66;;;6.71;69.58
62600;BME280;48671;48.922;2.346;2024-03-07T07:05:29;101815.88;;;6.81;69.79
62600;BME280;48671;48.922;2.346;2024-03-07T07:07:55;101809.84;;;6.80;69.77
62600;BME280;48671;48.922;2.346;2024-03-07T07:10:20;101800.31;;;6.87;70.04
62600;BME280;48671;48.922;2.346;2024-03-07T07:12:49;101806.25;;;7.03;70.14
62600;BME280;48671;48.922;2.346;2024-03-07T07:15:17;101802.75;;;7.10;69.66
62600;BME280;48671;48.922;2.346;2024-03-07T07:17:44;101796.69;;;7.13;68.87
62600;BME280;48671;48.922;2.346;2024-03-07T07:20:14;101800.06;;;7.24;69.75
62600;BME280;48671;48.922;2.346;2024-03-07T07:22:41;101802.63;;;7.30;69.55
62600;BME280;48671;48.922;2.346;2024-03-07T07:25:07;101798.25;;;7.35;69.62
62600;BME280;48671;48.922;2.346;2024-03-07T07:27:44;101805.09;;;7.44;68.13
62600;BME280;48671;48.922;2.346;2024-03-07T07:30:14;101781.84;;;7.35;67.89
62600;BME280;48671;48.922;2.346;2024-03-07T07:32:40;101798.88;;;7.62;68.47
62600;BME280;48671;48.922;2.346;2024-03-07T07:35:07;101793.34;;;7.98;67.53
62600;BME280;48671;48.922;2.346;2024-03-07T07:37:39;101779.88;;;8.43;67.04
62600;BME280;48671;48.922;2.346;2024-03-07T07:40:10;101783.25;;;9.11;65.64
62600;BME280;48671;48.922;2.346;2024-03-07T07:42:39;101790.88;;;9.73;63.73
62600;BME280;48671;48.922;2.346;2024-03-07T07:45:08;101770.25;;;10.11;63.27
62600;BME280;48671;48.922;2.346;2024-03-07T07:47:48;101760.16;;;10.39;63.11
62600;BME280;48671;48.922;2.346;2024-03-07T07:50:18;101771.88;;;10.58;59.38
62600;BME280;48671;48.922;2.346;2024-03-07T07:52:51;101763.72;;;10.35;61.39
62600;BME280;48671;48.922;2.346;2024-03-07T07:55:23;101773.66;;;10.14;60.73
62600;BME280;48671;48.922;2.346;2024-03-07T07:57:56;101779.09;;;10.00;59.89
62600;BME280;48671;48.922;2.346;2024-03-07T08:00:24;101749.19;;;9.79;59.72
62600;BME280;48671;48.922;2.346;2024-03-07T08:05:20;101754.28;;;10.30;60.46
62600;BME280;48671;48.922;2.346;2024-03-07T08:07:48;101756.00;;;10.70;59.36
62600;BME280;48671;48.922;2.346;2024-03-07T08:10:14;101757.88;;;11.01;58.39
62600;BME280;48671;48.922;2.346;2024-03-07T08:12:41;101739.16;;;11.21;58.51
62600;BME280;48671;48.922;2.346;2024-03-07T08:15:09;101760.19;;;11.47;57.45
62600;BME280;48671;48.922;2.346;2024-03-07T08:17:34;101755.38;;;11.66;57.84
62600;BME280;48671;48.922;2.346;2024-03-07T08:20:00;101738.84;;;11.67;56.03
62600;BME280;48671;48.922;2.346;2024-03-07T08:22:26;101732.03;;;11.62;56.54
62600;BME280;48671;48.922;2.346;2024-03-07T08:24:51;101720.59;;;11.67;57.20
62600;BME280;48671;48.922;2.346;2024-03-07T08:27:17;101719.38;;;11.81;57.69
62600;BME280;48671;48.922;2.346;2024-03-07T08:29:43;101726.66;;;12.01;54.52
62600;BME280;48671;48.922;2.346;2024-03-07T08:32:08;101720.69;;;11.97;56.98
62600;BME280;48671;48.922;2.346;2024-03-07T08:34:33;101721.69;;;11.91;55.92
62600;BME280;48671;48.922;2.346;2024-03-07T08:36:59;101720.69;;;11.64;56.56
62600;BME280;48671;48.922;2.346;2024-03-07T08:39:24;101726.44;;;11.44;57.07
62600;BME280;48671;48.922;2.346;2024-03-07T08:41:49;101708.97;;;11.14;57.09
62600;BME280;48671;48.922;2.346;2024-03-07T08:44:15;101719.34;;;11.15;57.72
62600;BME280;48671;48.922;2.346;2024-03-07T08:46:40;101729.34;;;11.32;58.21
62600;BME280;48671;48.922;2.346;2024-03-07T08:49:06;101716.94;;;11.42;57.54
62600;BME280;48671;48.922;2.346;2024-03-07T08:51:32;101715.66;;;11.57;56.90
62600;BME280;48671;48.922;2.346;2024-03-07T08:53:57;101730.03;;;11.71;57.86
62600;BME280;48671;48.922;2.346;2024-03-07T08:56:22;101719.56;;;11.73;56.80
62600;BME280;48671;48.922;2.346;2024-03-07T08:58:48;101710.72;;;11.79;56.78
62600;BME280;48671;48.922;2.346;2024-03-07T09:01:13;101717.41;;;11.89;56.58
62600;BME280;48671;48.922;2.346;2024-03-07T09:03:38;101715.66;;;11.89;56.37
62600;BME280;48671;48.922;2.346;2024-03-07T09:06:04;101704.25;;;11.93;56.30
62600;BME280;48671;48.922;2.346;2024-03-07T09:08:30;101708.59;;;11.93;56.33
62600;BME280;48671;48.922;2.346;2024-03-07T09:10:56;101713.97;;;11.88;56.57
62600;BME280;48671;48.922;2.346;2024-03-07T09:13:23;101706.06;;;11.91;56.63
62600;BME280;48671;48.922;2.346;2024-03-07T09:15:48;101681.06;;;11.84;55.87
62600;BME280;48671;48.922;2.346;2024-03-07T09:18:13;101712.63;;;12.05;56.62
62600;BME280;48671;48.922;2.346;2024-03-07T09:20:40;101709.84;;;12.11;55.34
62600;BME280;48671;48.922;2.346;2024-03-07T09:23:05;101686.41;;;12.09;55.40
62600;BME280;48671;48.922;2.346;2024-03-07T09:25:31;101693.63;;;12.00;53.53
62600;BME280;48671;48.922;2.346;2024-03-07T09:27:58;101693.63;;;12.00;54.56
62600;BME280;48671;48.922;2.346;2024-03-07T09:30:25;101680.75;;;11.95;54.93
62600;BME280;48671;48.922;2.346;2024-03-07T09:32:53;101687.56;;;11.99;53.75
62600;BME280;48671;48.922;2.346;2024-03-07T09:35:20;101684.94;;;12.01;54.57
62600;BME280;48671;48.922;2.346;2024-03-07T09:37:46;101688.41;;;12.00;53.72
62600;BME280;48671;48.922;2.346;2024-03-07T09:40:11;101666.88;;;11.93;53.24
62600;BME280;48671;48.922;2.346;2024-03-07T09:42:45;101677.50;;;12.16;54.84
62600;BME280;48671;48.922;2.346;2024-03-07T09:45:17;101675.41;;;12.28;53.60
62600;BME280;48671;48.922;2.346;2024-03-07T09:47:45;101664.72;;;12.35;54.68
62600;BME280;48671;48.922;2.346;2024-03-07T09:50:13;101665.88;;;12.55;54.65
62600;BME280;48671;48.922;2.346;2024-03-07T09:52:40;101668.00;;;12.70;53.91
62600;BME280;48671;48.922;2.346;2024-03-07T09:55:07;101650.44;;;12.75;54.05
62600;BME280;48671;48.922;2.346;2024-03-07T09:57:34;101654.94;;;12.97;54.32
62600;BME280;48671;48.922;2.346;2024-03-07T10:00:02;101640.72;;;13.05;53.62
62600;BME280;48671;48.922;2.346;2024-03-07T10:02:29;101650.59;;;13.22;53.60
62600;BME280;48671;48.922;2.346;2024-03-07T10:04:57;101642.66;;;13.24;53.26
62600;BME280;48671;48.922;2.346;2024-03-07T10:07:23;101632.16;;;13.27;53.57
62600;BME280;48671;48.922;2.346;2024-03-07T10:09:49;101623.94;;;13.38;52.59
62600;BME280;48671;48.922;2.346;2024-03-07T10:12:17;101623.56;;;13.48;50.59
62600;BME280;48671;48.922;2.346;2024-03-07T10:14:56;101627.75;;;13.52;52.91
62600;BME280;48671;48.922;2.346;2024-03-07T10:17:24;101629.94;;;13.65;52.04
62600;BME280;48671;48.922;2.346;2024-03-07T10:19:52;101633.16;;;13.71;51.87
62600;BME280;48671;48.922;2.346;2024-03-07T10:22:19;101631.84;;;13.83;52.70
62600;BME280;48671;48.922;2.346;2024-03-07T10:24:56;101629.25;;;14.05;52.77
62600;BME280;48671;48.922;2.346;2024-03-07T10:27:22;101612.59;;;14.08;51.74
62600;BME280;48671;48.922;2.346;2024-03-07T10:29:48;101624.16;;;14.24;51.81
62600;BME280;48671;48.922;2.346;2024-03-07T10:32:22;101615.00;;;14.36;51.50
62600;BME280;48671;48.922;2.346;2024-03-07T10:34:52;101624.28;;;14.43;51.62
62600;BME280;48671;48.922;2.346;2024-03-07T10:37:18;101613.75;;;14.44;51.89
62600;BME280;48671;48.922;2.346;2024-03-07T10:39:49;101612.47;;;14.55;51.24
62600;BME280;48671;48.922;2.346;2024-03-07T10:42:15;101607.47;;;14.70;51.93
62600;BME280;48671;48.922;2.346;2024-03-07T10:44:54;101608.53;;;14.87;51.25
62600;BME280;48671;48.922;2.346;2024-03-07T10:47:26;101615.66;;;15.04;51.77
62600;BME280;48671;48.922;2.346;2024-03-07T10:52:57;101583.44;;;15.22;50.90
62600;BME280;48671;48.922;2.346;2024-03-07T10:55:40;101590.75;;;15.34;49.35
62600;BME280;48671;48.922;2.346;2024-03-07T11:00:47;101595.91;;;15.36;49.30
62600;BME280;48671;48.922;2.346;2024-03-07T11:03:13;101575.22;;;15.30;50.27
62600;BME280;48671;48.922;2.346;2024-03-07T11:05:40;101582.13;;;15.51;50.33
62600;BME280;48671;48.922;2.346;2024-03-07T11:08:09;101583.63;;;15.76;50.17
62600;BME280;48671;48.922;2.346;2024-03-07T11:10:39;101574.44;;;15.86;48.39
62600;BME280;48671;48.922;2.346;2024-03-07T11:13:06;101567.69;;;15.80;48.62
62600;BME280;48671;48.922;2.346;2024-03-07T11:15:33;101572.28;;;15.75;48.07
62600;BME280;48671;48.922;2.346;2024-03-07T11:17:59;101568.25;;;15.87;49.85
62600;BME280;48671;48.922;2.346;2024-03-07T11:20:26;101564.72;;;16.05;49.46
62600;BME280;48671;48.922;2.346;2024-03-07T11:22:52;101557.75;;;16.23;48.03
62600;BME280;48671;48.922;2.346;2024-03-07T11:25:22;101582.38;;;16.21;46.83
62600;BME280;48671;48.922;2.346;2024-03-07T11:27:55;101554.06;;;15.91;48.83
62600;BME280;48671;48.922;2.346;2024-03-07T11:30:22;101552.66;;;15.84;48.93
62600;BME280;48671;48.922;2.346;2024-03-07T11:32:49;101548.09;;;15.87;48.94
62600;BME280;48671;48.922;2.346;2024-03-07T11:35:21;101547.72;;;15.95;48.68
62600;BME280;48671;48.922;2.346;2024-03-07T11:37:58;101543.94;;;16.20;48.67
62600;BME280;48671;48.922;2.346;2024-03-07T11:42:51;101540.41;;;16.55;48.10
62600;BME280;48671;48.922;2.346;2024-03-07T11:45:18;101532.75;;;16.68;47.14
62600;BME280;48671;48.922;2.346;2024-03-07T11:47:57;101518.25;;;16.78;46.97
62600;BME280;48671;48.922;2.346;2024-03-07T11:50:28;101520.50;;;17.02;46.49
62600;BME280;48671;48.922;2.346;2024-03-07T11:52:54;101520.03;;;16.94;46.03
62600;BME280;48671;48.922;2.346;2024-03-07T11:55:22;101520.44;;;16.86;45.26
62600;BME280;48671;48.922;2.346;2024-03-07T11:57:48;101495.00;;;16.87;45.97
62600;BME280;48671;48.922;2.346;2024-03-07T12:00:17;101499.47;;;17.02;45.91
62600;BME280;48671;48.922;2.346;2024-03-07T12:02:43;101500.25;;;17.20;45.59
62600;BME280;48671;48.922;2.346;2024-03-07T12:05:09;101491.13;;;17.27;44.38
62600;BME280;48671;48.922;2.346;2024-03-07T12:07:35;101491.03;;;17.28;45.47
62600;BME280;48671;48.922;2.346;2024-03-07T12:10:04;101490.53;;;17.38;45.38
62600;BME280;48671;48.922;2.346;2024-03-07T12:12:30;101484.44;;;17.37;44.96
62600;BME280;48671;48.922;2.346;2024-03-07T12:14:56;101474.41;;;17.44;44.03
62600;BME280;48671;48.922;2.346;2024-03-07T12:17:22;101457.44;;;17.49;44.84
62600;BME280;48671;48.922;2.346;2024-03-07T12:19:49;101462.28;;;17.57;44.38
62600;BME280;48671;48.922;2.346;2024-03-07T12:22:21;101454.53;;;17.54;42.78
62600;BME280;48671;48.922;2.346;2024-03-07T12:25:02;101459.53;;;17.59;41.86
62600;BME280;48671;48.922;2.346;2024-03-07T12:27:28;101455.38;;;17.54;41.76
62600;BME280;48671;48.922;2.346;2024-03-07T12:29:55;101456.41;;;17.52;42.11
62600;BME280;48671;48.922;2.346;2024-03-07T12:32:20;101447.84;;;17.48;41.48
62600;BME280;48671;48.922;2.346;2024-03-07T12:34:46;101413.81;;;17.29;42.63
62600;BME280;48671;48.922;2.346;2024-03-07T12:37:13;101432.66;;;17.53;41.59
62600;BME280;48671;48.922;2.346;2024-03-07T12:39:42;101432.31;;;17.60;41.62
62600;BME280;48671;48.922;2.346;2024-03-07T12:42:24;101416.66;;;17.72;42.32
62600;BME280;48671;48.922;2.346;2024-03-07T12:44:50;101408.66;;;17.74;40.95
62600;BME280;48671;48.922;2.346;2024-03-07T12:47:16;101415.47;;;17.62;41.33
62600;BME280;48671;48.922;2.346;2024-03-07T12:49:45;101409.38;;;17.62;42.40
62600;BME280;48671;48.922;2.346;2024-03-07T12:52:11;101394.31;;;17.49;40.74
62600;BME280;48671;48.922;2.346;2024-03-07T12:54:41;101404.44;;;17.55;42.04
62600;BME280;48671;48.922;2.346;2024-03-07T12:57:12;101381.00;;;17.37;41.78
62600;BME280;48671;48.922;2.346;2024-03-07T12:59:38;101391.75;;;17.32;41.35
62600;BME280;48671;48.922;2.346;2024-03-07T13:02:06;101388.88;;;17.37;41.61
62600;BME280;48671;48.922;2.346;2024-03-07T13:04:32;101384.19;;;17.42;41.89